Terminal Aerodrome Forecast
Issued by NWS Austin/San Antonio, TX

Home | Current Version | Previous Version | Text Only | Print | Product List | Glossary On
Versions: 1 2 3 4 5 6 7 8 9 10 11 12 13 14 15 16 17 18 19 20 21 22 23 24 25 26 27 28 29
937
FTUS44 KEWX 281733
TAFSAT
TAF
KSAT 281733Z 2818/2924 16011KT P6SM SCT025 BKN035
     FM282000 13011KT P6SM BKN040
     FM290300 12010KT P6SM OVC015
     FM290800 13007KT P6SM OVC007
     FM291200 13005KT 5SM BR OVC004
     FM291500 13009KT P6SM OVC012
     FM291800 14012KT P6SM BKN040=

USA.gov is the U.S. government's official web portal to all federal, state and local government web resources and services.